Flight Track Log - Related Links

Times and Time Zones

All times are in EDT time to prevent confusion due to time zone crossing. See the XSR335 flight status page for this flight to view local times or setup timezone preferences in your user account.

Time Position Orientation Groundspeed Altitude Reporting Facility
EDT Latitude Longitude Course Direction KTS MPH feet Rate Location/Type
09:19AM 45.5959 -122.5993 295° West 166 191 1,100  Level FlightAware ADS-B
09:19AM 45.6025 -122.6204 293° West 192 221 2,200 3,414 Climbing FlightAware ADS-B
09:20AM 45.6177 -122.6729 292° West 223 257 4,400 3,443 Climbing FlightAware ADS-B (KPFC)
09:20AM 45.6288 -122.6989 300° West 232 267 5,700 4,000 Climbing FlightAware ADS-B (KPFC)
09:20AM 45.6408 -122.7285 300° West 238 274 7,200 4,075 Climbing FlightAware ADS-B
09:21AM 45.6641 -122.7663 329° Northwest 243 280 9,300 3,529 Climbing FlightAware ADS-B (KPFC)
09:21AM 45.6877 -122.7729 North 275 316 10,200 2,727 Climbing FlightAware ADS-B (KPFC)
09:21AM 45.7033 -122.7640 30° Northeast 287 330 10,800 2,824 Climbing FlightAware ADS-B
09:21AM 45.7074 -122.7600 38° Northeast 290 334 11,000 4,000 Climbing FlightAware ADS-B
09:21AM 45.7109 -122.7546 49° Northeast 293 337 11,400 3,176 Climbing FlightAware ADS-B
09:22AM 45.7192 -122.7310 51° Northeast 294 338 11,900 2,769 Climbing FlightAware ADS-B
09:22AM 45.7194 -122.7301 75° East 299 344 12,000 4,000 Climbing FlightAware ADS-B (KPFC)
09:22AM 45.7201 -122.7250 73° East 301 346 12,100 3,000 Climbing FlightAware ADS-B
09:22AM 45.7208 -122.7130 86° East 306 352 12,400 3,667 Climbing FlightAware ADS-B
09:22AM 45.7210 -122.6889 89° East 305 351 13,200 4,000 Climbing FlightAware ADS-B (KPFC)
09:22AM 45.7213 -122.6770 88° East 305 351 13,600 3,571 Climbing FlightAware ADS-B
09:23AM 45.7241 -122.6169 87° East 314 361 15,700 3,568 Climbing FlightAware ADS-B
09:23AM 45.7249 -122.6000 87° East 313 360 15,800 4,000 Climbing FlightAware ADS-B
09:23AM 45.7267 -122.5413 89° East 307 353 17,700 3,805 Climbing FlightAware ADS-B (KPFC)
09:23AM 45.7272 -122.5180 89° East 308 354 18,400 3,000 Climbing FlightAware ADS-B
09:24AM 45.7275 -122.4599 90° East 320 368 19,700 2,800 Climbing FlightAware ADS-B (KPFC)
09:24AM 45.7275 -122.4560 90° East 320 368 19,800 2,813 Climbing FlightAware ADS-B
09:24AM 45.7278 -122.3910 90° East 329 379 21,200 2,800 Climbing FlightAware ADS-B
09:25AM 45.7282 -122.3240 90° East 333 383 22,600 2,813 Climbing FlightAware ADS-B
09:25AM 45.7282 -122.3209 90° East 334 384 22,700 2,129 Climbing FlightAware ADS-B (KPFC)
09:25AM 45.7285 -122.2570 90° East 343 395 23,700 2,250 Climbing FlightAware ADS-B
09:25AM 45.7286 -122.2480 90° East 344 396 23,900 2,200 Climbing FlightAware ADS-B (KPFC)
09:26AM 45.7290 -122.1870 90° East 354 407 24,800 1,935 Climbing FlightAware ADS-B
09:26AM 45.7291 -122.1816 90° East 355 409 24,900 1,400 Climbing FlightAware ADS-B
09:26AM 45.7293 -122.1150 90° East 370 426 25,500 1,317 Climbing FlightAware ADS-B
09:27AM 45.7294 -122.0765 90° East 382 440 25,800 1,200 Climbing FlightAware ADS-B (KPFC)
09:27AM 45.7295 -122.0400 90° East 388 447 26,100 1,400 Climbing FlightAware ADS-B
09:27AM 45.7297 -122.0014 90° East 395 455 26,500 1,600 Climbing FlightAware ADS-B
09:27AM 45.7298 -121.9600 90° East 400 460 26,900 1,571 Climbing FlightAware ADS-B
09:28AM 45.7300 -121.8873 90° East 409 471 27,600 1,400 Climbing FlightAware ADS-B (KPFC)
09:28AM 45.7300 -121.8790 90° East 410 472 27,600 1,355 Level FlightAware ADS-B
09:28AM 45.7302 -121.8053 90° East 417 480 28,300 1,355 Climbing FlightAware ADS-B
09:28AM 45.7302 -121.7970 90° East 419 482 28,300 909 Level FlightAware ADS-B
09:29AM 45.7302 -121.7120 90° East 432 497 28,800 1,135 Climbing FlightAware ADS-B
09:29AM 45.7303 -121.6905 90° East 437 503 29,000 1,000 Climbing FlightAware ADS-B (KPFC)
09:29AM 45.7302 -121.6240 90° East 444 511 29,300 1,000 Climbing FlightAware ADS-B
09:30AM 45.7303 -121.6033 90° East 444 511 29,500 1,742 Climbing FlightAware ADS-B
09:30AM 45.7302 -121.5340 90° East 439 505 30,200 1,814 Climbing FlightAware ADS-B
09:30AM 45.7302 -121.4778 90° East 435 501 30,800 2,000 Climbing FlightAware ADS-B (KPFC)
09:30AM 45.7302 -121.4480 90° East 433 498 31,200 2,000 Climbing FlightAware ADS-B
09:31AM 45.7300 -121.3932 90° East 427 491 31,800 1,800 Climbing FlightAware ADS-B
09:31AM 45.7300 -121.3620 90° East 426 490 32,100 1,317 Climbing FlightAware ADS-B
09:31AM 45.7297 -121.2770 90° East 430 495 32,700 1,125 Climbing FlightAware ADS-B
09:31AM 45.7297 -121.2710 90° East 430 495 32,700 429 Level FlightAware ADS-B (KPFC)
09:32AM 45.7292 -121.1570 90° East 445 512 33,000 486 Climbing FlightAware ADS-B
09:33AM 45.7295 -121.0560 90° East 450 518 33,300 649 Climbing FlightAware ADS-B
09:33AM 45.7381 -120.9340 85° East 461 531 33,800 783 Climbing FlightAware ADS-B
09:34AM 45.7436 -120.8468 86° East 460 529 34,200 878 Climbing FlightAware ADS-B (KPFC)
09:34AM 45.7460 -120.8090 85° East 460 529 34,400 1,000 Climbing FlightAware ADS-B
09:34AM 45.7490 -120.7610 85° East 460 529 34,700 885 Climbing FlightAware ADS-B
09:35AM 45.7575 -120.6258 86° East 457 526 35,300 878 Climbing FlightAware ADS-B (KPFC)
09:36AM 45.7647 -120.5084 86° East 453 521 35,900 917 Climbing FlightAware ADS-B (KPFC)
09:36AM 45.7708 -120.4095 85° East 450 518 36,400 904 Climbing FlightAware ADS-B (KPFC)
09:37AM 45.7778 -120.2912 85° East 444 511 37,000 892 Climbing FlightAware ADS-B (KPFC)
09:37AM 45.7836 -120.1935 85° East 443 510 37,500 822 Climbing FlightAware ADS-B (KPFC)
09:38AM 45.7900 -120.0815 85° East 443 510 38,000 423 Climbing FlightAware ADS-B (KPFC)
09:39AM 45.7952 -119.9894 85° East 447 514 38,000  Level FlightAware ADS-B
09:39AM 45.8029 -119.8524 86° East 459 528 38,000 160 Level FlightAware ADS-B (KPFC)
09:40AM 45.8078 -119.7633 86° East 461 531 38,200 658 Climbing FlightAware ADS-B
09:41AM 45.8127 -119.6757 86° East 458 527 38,800 904 Climbing FlightAware ADS-B
09:41AM 45.8180 -119.5762 86° East 452 520 39,300 882 Climbing FlightAware ADS-B
09:42AM 45.8225 -119.4913 86° East 444 511 39,800 848 Climbing FlightAware ADS-B
09:43AM 45.8335 -119.2749 86° East 432 497 40,600 649 Climbing FlightAware ADS-B (KPFC)
09:44AM 45.8415 -119.1136 87° East 434 499 41,000 190 Climbing FlightAware ADS-B (KPFC)
09:45AM 45.8511 -118.9136 87° East 448 516 41,000  Level FlightAware ADS-B (KPFC)
09:45AM 45.8556 -118.8108 87° East 447 514 41,000  Level Seattle Center
09:46AM 45.8644 -118.6294 86° East 453 521 41,000  Level Seattle Center
09:47AM 45.8728 -118.4672 86° East 455 524 41,000  Level Seattle Center
09:48AM 45.8792 -118.2814 87° East 464 534 41,000  Level Seattle Center
09:50AM 45.8889 -118.0667 86° East 458 527 41,000  Level Seattle Center
09:51AM 45.8950 -117.8864 87° East 456 525 41,000  Level Seattle Center
09:52AM 45.9017 -117.7094 87° East 451 519 41,000  Level Seattle Center
09:53AM 45.9075 -117.5325 87° East 449 517 41,000  Level Seattle Center
09:54AM 45.9142 -117.3556 87° East 449 517 41,000  Level Seattle Center
09:55AM 45.9203 -117.1783 87° East 449 517 41,000  Level Seattle Center
09:56AM 45.9244 -117.0014 88° East 448 516 41,000  Level Seattle Center
09:57AM 45.9311 -116.8233 87° East 448 516 41,000  Level Seattle Center
09:58AM 45.9356 -116.6433 88° East 452 520 41,000  Level Seattle Center
09:59AM 45.9414 -116.4322 88° East 449 517 41,000  Level Seattle Center
10:00AM 45.9453 -116.2544 88° East 447 514 41,000  Level Seattle Center
10:01AM 45.9492 -116.0775 88° East 447 514 41,000  Level Seattle Center
10:02AM 45.9522 -115.9492 88° East 447 514 41,000  Level Salt Lake Center
10:03AM 45.9558 -115.7703 88° East 447 514 41,000  Level Salt Lake Center
10:04AM 45.9592 -115.5881 88° East 448 516 41,000  Level Salt Lake Center
10:05AM 45.9628 -115.3731 89° East 449 517 41,000  Level Salt Lake Center
10:06AM 45.9653 -115.1944 89° East 449 517 41,000  Level Salt Lake Center
10:07AM 45.9678 -115.0106 89° East 451 519 41,000  Level Salt Lake Center
10:08AM 45.9700 -114.8303 89° East 452 520 41,000  Level Salt Lake Center
10:09AM 45.9719 -114.6494 89° East 452 520 41,000  Level Salt Lake Center
10:10AM 45.9733 -114.4647 89° East 454 522 41,000  Level Salt Lake Center
10:11AM 45.9756 -114.2800 89° East 459 528 41,000  Level Salt Lake Center
10:12AM 45.9769 -114.0944 89° East 459 528 41,000  Level Salt Lake Center
10:13AM 45.9758 -113.9064 90° East 468 539 41,000  Level Salt Lake Center
10:14AM 45.9769 -113.6822 90° East 471 542 41,000  Level Salt Lake Center
10:15AM 45.9758 -113.4839 90° East 471 542 41,000  Level Salt Lake Center
10:16AM 45.9753 -113.2942 90° East 470 541 41,000  Level Salt Lake Center
10:17AM 45.9744 -113.1050 90° East 467 537 41,000  Level Salt Lake Center
10:18AM 45.9742 -112.9147 90° East 467 537 41,000  Level Salt Lake Center
10:19AM 45.9744 -112.7267 90° East 465 535 41,000  Level Salt Lake Center
10:20AM 45.9731 -112.5381 91° East 464 534 41,000  Level Salt Lake Center
10:21AM 45.9700 -112.3508 91° East 464 534 41,000  Level Salt Lake Center
10:22AM 45.9681 -112.1619 91° East 463 533 41,000  Level Salt Lake Center
10:23AM 45.9653 -111.9597 91° East 463 533 41,000  Level Salt Lake Center
10:24AM 45.9631 -111.7717 91° East 463 533 41,000  Level Salt Lake Center
10:30AM 45.9403 -110.6192 91° East 461 531 41,000  Level FlightAware ADS-B (KBIL)
10:31AM 45.9383 -110.5437 92° East 461 531 41,000  Level FlightAware ADS-B (KBIL)
10:31AM 45.9354 -110.4391 92° East 460 529 41,000  Level FlightAware ADS-B (KBIL)
10:32AM 45.9344 -110.4009 92° East 461 531 41,000  Level FlightAware ADS-B (KBIL)
10:32AM 45.9305 -110.2577 92° East 460 529 41,000  Level FlightAware ADS-B (KBIL)
10:33AM 45.9279 -110.1699 92° East 460 529 41,000  Level FlightAware ADS-B (KBIL)
10:33AM 45.9250 -110.0763 92° East 460 529 41,000  Level FlightAware ADS-B (KBIL)
10:34AM 45.9222 -109.9829 92° East 460 529 41,000  Level FlightAware ADS-B (KBIL)
10:34AM 45.9193 -109.8911 92° East 461 531 41,000  Level FlightAware ADS-B (KBIL)
10:35AM 45.9165 -109.8065 92° East 461 531 41,000  Level FlightAware ADS-B (KBIL)
10:35AM 45.9132 -109.7041 92° East 462 532 41,000  Level FlightAware ADS-B (KBIL)
10:36AM 45.9103 -109.6187 92° East 463 533 41,000  Level FlightAware ADS-B (KBIL)
10:36AM 45.9067 -109.5173 92° East 465 535 41,000  Level FlightAware ADS-B (KBIL)
10:37AM 45.9034 -109.4236 92° East 466 536 41,000  Level FlightAware ADS-B (KBIL)
10:37AM 45.9001 -109.3322 92° East 468 539 41,000  Level FlightAware ADS-B (KBIL)
10:38AM 45.8965 -109.2352 93° East 470 541 41,000  Level FlightAware ADS-B (KBIL)
10:38AM 45.8929 -109.1420 93° East 471 542 41,000  Level FlightAware ADS-B (KBIL)
10:39AM 45.8899 -109.0648 93° East 472 543 41,000  Level FlightAware ADS-B (KBIL)
10:39AM 45.8856 -108.9566 93° East 473 544 41,000  Level FlightAware ADS-B (KBIL)
10:40AM 45.8820 -108.8681 93° East 474 545 41,000  Level FlightAware ADS-B (KBIL)
10:40AM 45.8778 -108.7691 93° East 475 547 41,000  Level FlightAware ADS-B (KBIL)
10:41AM 45.8741 -108.6810 93° East 475 547 41,000  Level FlightAware ADS-B (KBIL)
10:41AM 45.8697 -108.5779 93° East 477 549 41,000  Level FlightAware ADS-B (KBIL)
10:42AM 45.8658 -108.4901 93° East 478 550 41,000  Level FlightAware ADS-B (KBIL)
10:42AM 45.8616 -108.3955 93° East 478 550 41,000  Level FlightAware ADS-B (KBIL)
10:43AM 45.8569 -108.2928 93° East 480 552 41,000  Level FlightAware ADS-B (KBIL)
10:43AM 45.8526 -108.1994 93° East 480 552 41,000  Level FlightAware ADS-B (KBIL)
10:44AM 45.8482 -108.1071 93° East 480 552 41,000  Level FlightAware ADS-B (KBIL)
10:44AM 45.8435 -108.0090 93° East 479 551 41,000  Level FlightAware ADS-B (KBIL)
10:45AM 45.8389 -107.9138 93° East 480 552 41,000  Level FlightAware ADS-B (KBIL)
10:45AM 45.8343 -107.8216 93° East 480 552 41,000  Level FlightAware ADS-B (KBIL)
10:46AM 45.8296 -107.7274 94° East 481 554 41,000  Level FlightAware ADS-B (KBIL)
10:46AM 45.8244 -107.6276 94° East 480 552 41,000  Level FlightAware ADS-B (KBIL)
10:47AM 45.8196 -107.5358 94° East 480 552 41,000  Level FlightAware ADS-B (KBIL)
10:47AM 45.8143 -107.4367 94° East 479 551 41,000  Level FlightAware ADS-B (KBIL)
10:48AM 45.8094 -107.3462 94° East 480 552 41,000  Level FlightAware ADS-B (KBIL)
10:48AM 45.8045 -107.2564 94° East 479 551 41,000  Level FlightAware ADS-B (KBIL)
10:49AM 45.7988 -107.1554 94° East 477 549 41,000  Level FlightAware ADS-B (KBIL)
10:49AM 45.7939 -107.0672 94° East 477 549 41,000  Level FlightAware ADS-B (KBIL)
10:50AM 45.7880 -106.9638 94° East 476 548 41,000  Level FlightAware ADS-B (KBIL)
10:50AM 45.7825 -106.8703 94° East 475 547 41,000  Level FlightAware ADS-B (KBIL)
10:51AM 45.7770 -106.7760 94° East 475 547 41,000  Level FlightAware ADS-B (KBIL)
10:51AM 45.7713 -106.6824 94° East 473 544 41,000  Level FlightAware ADS-B (KBIL)
10:52AM 45.7659 -106.5925 94° East 474 545 41,000  Level FlightAware ADS-B (KBIL)
10:52AM 45.7598 -106.4942 95° East 474 545 41,000  Level FlightAware ADS-B (KBIL)
10:53AM 45.7544 -106.4075 95° East 474 545 41,000  Level FlightAware ADS-B (KBIL)
10:53AM 45.7483 -106.3107 95° East 474 545 41,000  Level FlightAware ADS-B (KBIL)
10:54AM 45.7423 -106.2169 95° East 475 547 41,000  Level FlightAware ADS-B (KBIL)
10:54AM 45.7362 -106.1228 95° East 475 547 41,000  Level FlightAware ADS-B (KBIL)
10:55AM 45.7299 -106.0279 95° East 474 545 41,000  Level FlightAware ADS-B (KBIL)
10:55AM 45.7237 -105.9333 95° East 473 544 41,000  Level FlightAware ADS-B (KBIL)
10:56AM 45.7174 -105.8410 95° East 471 542 41,000  Level FlightAware ADS-B (KBIL)
10:56AM 45.7109 -105.7467 95° East 470 541 41,000  Level FlightAware ADS-B (KBIL)
10:57AM 45.7048 -105.6581 95° East 469 540 41,000  Level FlightAware ADS-B (KBIL)
10:57AM 45.6988 -105.5721 95° East 468 539 41,000  Level FlightAware ADS-B (KBIL)
10:58AM 45.6921 -105.4775 95° East 467 537 41,000  Level FlightAware ADS-B (KBIL)
10:58AM 45.6852 -105.3807 95° East 466 536 41,000  Level FlightAware ADS-B (KBIL)
10:59AM 45.6786 -105.2886 95° East 465 535 41,000  Level FlightAware ADS-B (KBIL)
10:59AM 45.6722 -105.2009 95° East 464 534 41,000  Level FlightAware ADS-B (KBIL)
11:00AM 45.6652 -105.1071 96° East 463 533 41,000  Level FlightAware ADS-B (KBIL)
11:00AM 45.6586 -105.0187 96° East 462 532 41,000  Level FlightAware ADS-B (KBIL)
11:01AM 45.6514 -104.9226 96° East 462 532 41,000  Level FlightAware ADS-B (KBIL)
11:01AM 45.6448 -104.8363 96° East 463 533 41,000  Level FlightAware ADS-B (KBIL)
11:02AM 45.6372 -104.7386 96° East 463 533 41,000  Level FlightAware ADS-B (KBIL)
11:02AM 45.6305 -104.6529 96° East 464 534 41,000  Level FlightAware ADS-B (KBIL)
11:03AM 45.6258 -104.5932 96° East 464 534 41,000  Level FlightAware ADS-B (KBIL)
11:03AM 45.6225 -104.5506 96° East 464 534 41,000  Level FlightAware ADS-B (KBIL)
11:04AM 45.6142 -104.4361 96° East 459 528 41,000  Level Minneapolis Center
11:04AM 45.6014 -104.2894 97° East 465 535 41,000  Level Salt Lake Center
11:05AM 45.5864 -104.1075 97° East 466 536 41,000  Level Salt Lake Center
11:06AM 45.5708 -103.9244 97° East 465 535 41,000  Level Salt Lake Center
11:08AM 45.5553 -103.7411 97° East 466 536 41,000  Level Salt Lake Center
11:09AM 45.5400 -103.5578 97° East 466 536 41,000  Level Salt Lake Center
11:10AM 45.5233 -103.3753 97° East 466 536 41,000  Level Salt Lake Center
11:11AM 45.5036 -103.1556 97° East 466 536 41,000  Level Salt Lake Center
11:12AM 45.4869 -102.9747 97° East 466 536 41,000  Level Salt Lake Center
11:13AM 45.4697 -102.7950 98° East 466 536 41,000  Level Salt Lake Center
11:15AM 45.4356 -102.4350 98° East 463 533 41,000  Level Salt Lake Center
11:17AM 45.3947 -102.0419 98° East 460 529 41,000  Level Salt Lake Center
11:18AM 45.3778 -101.8628 98° East 460 529 41,000  Level Salt Lake Center
11:19AM 45.3564 -101.6583 98° East 459 528 41,000  Level Minneapolis Center
11:20AM 45.3344 -101.4436 98° East 458 527 41,000  Level Minneapolis Center
11:21AM 45.3144 -101.2669 99° East 458 527 41,000  Level Minneapolis Center
11:22AM 45.2942 -101.0900 99° East 458 527 41,000  Level Minneapolis Center
11:23AM 45.2747 -100.9114 99° East 458 527 41,000  Level Minneapolis Center
11:24AM 45.2547 -100.7350 99° East 457 526 41,000  Level Minneapolis Center
11:25AM 45.2353 -100.5572 99° East 457 526 41,000  Level Minneapolis Center
11:26AM 45.2100 -100.3444 99° East 457 526 41,000  Level Minneapolis Center
11:27AM 45.1889 -100.1664 99° East 457 526 41,000  Level Minneapolis Center
11:28AM 45.1681 -99.9839 99° East 457 526 41,000  Level Minneapolis Center
11:29AM 45.1444 -99.7981 100° East 461 531 41,000  Level Minneapolis Center
11:30AM 45.1211 -99.6192 100° East 461 531 41,000  Level Minneapolis Center
11:32AM 45.0986 -99.4419 100° East 461 531 41,000  Level Minneapolis Center
11:33AM 45.0769 -99.2669 100° East 457 526 41,000  Level Minneapolis Center
11:34AM 45.0550 -99.0908 100° East 456 525 41,000  Level Minneapolis Center
11:35AM 45.0311 -98.9142 101° East 456 525 41,000  Level Minneapolis Center
11:41AM 44.8823 -97.8221 101° East 460 529 41,000  Level FlightAware ADS-B
11:41AM 44.8693 -97.7312 101° East 460 529 41,000  Level FlightAware ADS-B
11:42AM 44.8556 -97.6345 101° East 461 531 41,000  Level FlightAware ADS-B
11:42AM 44.8428 -97.5452 101° East 461 531 41,000  Level FlightAware ADS-B
11:43AM 44.8264 -97.4314 101° East 460 529 41,000  Level FlightAware ADS-B
11:43AM 44.8136 -97.3432 102° East 460 529 41,000  Level FlightAware ADS-B
11:44AM 44.8069 -97.2902 97° East 460 529 41,000  Level FlightAware ADS-B
11:44AM 44.8046 -97.1981 92° East 457 526 41,000  Level FlightAware ADS-B
11:47AM 44.7901 -96.6418 92° East 457 526 41,000  Level FlightAware ADS-B
11:48AM 44.7876 -96.5524 92° East 457 526 41,000  Level FlightAware ADS-B
11:48AM 44.7850 -96.4633 92° East 458 527 41,000 -716 Level FlightAware ADS-B
11:50AM 44.7779 -96.2291 93° East 456 525 39,700 -1,364 Descending FlightAware ADS-B
11:50AM 44.7750 -96.1391 93° East 449 517 38,500 -2,147 Descending FlightAware ADS-B
11:51AM 44.7703 -95.9894 93° East 446 513 36,300 -2,238 Descending Minneapolis Center
11:52AM 44.7650 -95.8178 92° East 440 506 33,800 -2,613 Descending Minneapolis Center
11:53AM 44.7558 -95.6056 93° East 450 518 30,900 -2,613 Descending Minneapolis Center
11:54AM 44.7497 -95.4256 93° East 457 526 28,400 -2,439 Descending Minneapolis Center
11:55AM 44.7425 -95.2506 93° East 453 521 25,900 -2,439 Descending Minneapolis Center
11:56AM 44.7353 -95.0786 93° East 446 513 23,400 -2,419 Descending Minneapolis Center
11:57AM 44.7294 -94.9119 93° East 433 498 20,900 -2,371 Descending Minneapolis Center
11:58AM 44.7231 -94.7514 93° East 419 482 18,500 -2,371 Descending Minneapolis Center
11:59AM 44.7136 -94.5833 94° East 397 457 16,000 -2,177 Descending Minneapolis Center
12:00PM 44.7075 -94.4364 93° East 380 437 14,000 -1,245 Descending Minneapolis Center
12:07PM 44.8428 -93.7051 52° Northeast 269 310 7,100 -1,115 Descending FlightAware ADS-B (KSGS)
12:07PM 44.8533 -93.6860 52° Northeast 267 307 6,900 -706 Descending FlightAware ADS-B (KSGS)
12:07PM 44.8809 -93.6360 52° Northeast 263 303 6,500 -824 Descending FlightAware ADS-B (KSGS)
12:08PM 44.8917 -93.6161 52° Northeast 254 292 6,200 -1,273 Descending FlightAware ADS-B (KSGS)
12:08PM 44.9049 -93.5914 52° Northeast 254 292 5,800 -1,167 Descending FlightAware ADS-B (KSGS)
12:09PM 44.9326 -93.4657 95° East 237 273 4,100 -1,026 Descending FlightAware ADS-B (KSGS)
12:12PM 44.9146 -93.2704 95° East 237 273 1,800 -982 Descending FlightAware ADS-B (KSGS)
12:12PM 44.9051 -93.2492 122° Southeast 135 155 1,300 -828 Descending FlightAware ADS-B (KSGS)
12:13PM 44.8972 -93.2306 122° Southeast 145 167 1,000 -581 Descending Minneapolis Center
12:15PM 44.8820 -93.2218 90° East  Level Estimated

Login

Don't have an account? Register now (free) for customized features, flight alerts, and more!